sensor_id;sensor_type;location;lat;lon;timestamp;pressure;altitude;pressure_sealevel;temperature;humidity
74905;BME280;63465;50.862;6.220;2023-03-23T00:02:14;98764.72;;;12.19;81.95
74905;BME280;63465;50.862;6.220;2023-03-23T00:04:41;98779.81;;;12.18;82.13
74905;BME280;63465;50.862;6.220;2023-03-23T00:07:08;98776.44;;;12.16;82.38
74905;BME280;63465;50.862;6.220;2023-03-23T00:09:37;98764.53;;;12.09;82.82
74905;BME280;63465;50.862;6.220;2023-03-23T00:12:08;98777.81;;;12.09;83.00
74905;BME280;63465;50.862;6.220;2023-03-23T00:14:37;98768.56;;;12.02;83.18
74905;BME280;63465;50.862;6.220;2023-03-23T00:17:08;98788.56;;;12.07;82.67
74905;BME280;63465;50.862;6.220;2023-03-23T00:19:37;98775.16;;;12.09;82.89
74905;BME280;63465;50.862;6.220;2023-03-23T00:22:12;98784.75;;;12.11;82.58
74905;BME280;63465;50.862;6.220;2023-03-23T00:24:39;98780.47;;;12.09;82.90
74905;BME280;63465;50.862;6.220;2023-03-23T00:27:05;98775.38;;;12.06;83.51
74905;BME280;63465;50.862;6.220;2023-03-23T00:29:36;98775.47;;;12.04;83.52
74905;BME280;63465;50.862;6.220;2023-03-23T00:32:02;98767.63;;;12.03;83.61
74905;BME280;63465;50.862;6.220;2023-03-23T00:34:31;98757.94;;;12.02;83.64
74905;BME280;63465;50.862;6.220;2023-03-23T00:37:00;98763.91;;;12.05;83.54
74905;BME280;63465;50.862;6.220;2023-03-23T00:39:27;98753.88;;;12.09;83.28
74905;BME280;63465;50.862;6.220;2023-03-23T00:41:54;98760.25;;;12.06;83.51
74905;BME280;63465;50.862;6.220;2023-03-23T00:44:26;98763.25;;;12.02;83.80
74905;BME280;63465;50.862;6.220;2023-03-23T00:46:55;98759.97;;;11.98;83.83
74905;BME280;63465;50.862;6.220;2023-03-23T00:49:23;98768.88;;;11.97;84.38
74905;BME280;63465;50.862;6.220;2023-03-23T00:51:51;98760.19;;;11.95;84.66
74905;BME280;63465;50.862;6.220;2023-03-23T00:54:18;98759.50;;;11.91;85.00
74905;BME280;63465;50.862;6.220;2023-03-23T00:56:45;98765.78;;;11.90;85.37
74905;BME280;63465;50.862;6.220;2023-03-23T00:59:12;98768.44;;;11.90;85.57
74905;BME280;63465;50.862;6.220;2023-03-23T01:01:39;98765.25;;;11.85;86.00
74905;BME280;63465;50.862;6.220;2023-03-23T01:04:07;98769.91;;;11.82;86.37
74905;BME280;63465;50.862;6.220;2023-03-23T01:06:35;98765.22;;;11.72;87.37
74905;BME280;63465;50.862;6.220;2023-03-23T01:09:04;98775.97;;;11.71;88.20
74905;BME280;63465;50.862;6.220;2023-03-23T01:11:31;98768.31;;;11.66;88.49
74905;BME280;63465;50.862;6.220;2023-03-23T01:13:58;98755.34;;;11.62;88.72
74905;BME280;63465;50.862;6.220;2023-03-23T01:16:26;98767.34;;;11.54;89.02
74905;BME280;63465;50.862;6.220;2023-03-23T01:18:53;98770.88;;;11.55;89.91
74905;BME280;63465;50.862;6.220;2023-03-23T01:21:21;98765.66;;;11.53;89.66
74905;BME280;63465;50.862;6.220;2023-03-23T01:23:50;98753.72;;;11.46;90.18
74905;BME280;63465;50.862;6.220;2023-03-23T01:26:19;98747.78;;;11.42;90.53
74905;BME280;63465;50.862;6.220;2023-03-23T01:28:46;98744.38;;;11.40;90.63
74905;BME280;63465;50.862;6.220;2023-03-23T01:31:14;98735.34;;;11.43;90.53
74905;BME280;63465;50.862;6.220;2023-03-23T01:33:42;98726.66;;;11.41;90.58
74905;BME280;63465;50.862;6.220;2023-03-23T01:36:11;98740.97;;;11.51;89.11
74905;BME280;63465;50.862;6.220;2023-03-23T01:38:41;98741.84;;;11.65;87.88
74905;BME280;63465;50.862;6.220;2023-03-23T01:41:08;98742.69;;;11.65;87.64
74905;BME280;63465;50.862;6.220;2023-03-23T01:43:36;98702.09;;;11.63;88.06
74905;BME280;63465;50.862;6.220;2023-03-23T01:46:03;98690.06;;;11.57;88.89
74905;BME280;63465;50.862;6.220;2023-03-23T01:48:32;98710.50;;;11.57;88.97
74905;BME280;63465;50.862;6.220;2023-03-23T01:51:03;98728.78;;;11.62;88.47
74905;BME280;63465;50.862;6.220;2023-03-23T01:53:34;98713.56;;;11.64;88.09
74905;BME280;63465;50.862;6.220;2023-03-23T01:56:06;98694.66;;;11.68;87.79
74905;BME280;63465;50.862;6.220;2023-03-23T01:58:38;98689.56;;;11.78;86.78
74905;BME280;63465;50.862;6.220;2023-03-23T02:01:07;98664.16;;;11.74;87.51
74905;BME280;63465;50.862;6.220;2023-03-23T02:03:38;98673.06;;;11.73;87.49
74905;BME280;63465;50.862;6.220;2023-03-23T02:06:06;98677.53;;;11.72;87.04
74905;BME280;63465;50.862;6.220;2023-03-23T02:08:38;98662.44;;;11.73;86.90
74905;BME280;63465;50.862;6.220;2023-03-23T02:11:13;98665.84;;;11.75;86.32
74905;BME280;63465;50.862;6.220;2023-03-23T02:13:41;98666.69;;;11.75;86.64
74905;BME280;63465;50.862;6.220;2023-03-23T02:16:14;98670.31;;;11.74;86.71
74905;BME280;63465;50.862;6.220;2023-03-23T02:18:51;98689.44;;;11.80;86.52
74905;BME280;63465;50.862;6.220;2023-03-23T02:24:33;98689.66;;;11.76;86.98
74905;BME280;63465;50.862;6.220;2023-03-23T02:27:06;98692.75;;;11.70;87.39
74905;BME280;63465;50.862;6.220;2023-03-23T02:29:55;98704.53;;;11.66;87.66
74905;BME280;63465;50.862;6.220;2023-03-23T02:35:34;98699.75;;;11.71;87.23
74905;BME280;63465;50.862;6.220;2023-03-23T02:38:06;98698.47;;;11.77;86.88
74905;BME280;63465;50.862;6.220;2023-03-23T02:40:38;98699.22;;;11.79;86.77
74905;BME280;63465;50.862;6.220;2023-03-23T02:43:07;98705.41;;;11.80;86.86
74905;BME280;63465;50.862;6.220;2023-03-23T02:45:36;98686.78;;;11.80;86.74
74905;BME280;63465;50.862;6.220;2023-03-23T02:48:07;98686.91;;;11.78;86.79
74905;BME280;63465;50.862;6.220;2023-03-23T02:50:42;98667.44;;;11.77;86.72
74905;BME280;63465;50.862;6.220;2023-03-23T02:53:11;98671.91;;;11.77;86.63
74905;BME280;63465;50.862;6.220;2023-03-23T02:55:42;98689.44;;;11.80;86.35
74905;BME280;63465;50.862;6.220;2023-03-23T02:58:15;98684.97;;;11.80;86.74
74905;BME280;63465;50.862;6.220;2023-03-23T03:00:43;98676.25;;;11.78;86.69
74905;BME280;63465;50.862;6.220;2023-03-23T03:03:13;98697.53;;;11.78;86.45
74905;BME280;63465;50.862;6.220;2023-03-23T03:05:47;98690.91;;;11.84;86.30
74905;BME280;63465;50.862;6.220;2023-03-23T03:08:23;98689.13;;;11.84;85.87
74905;BME280;63465;50.862;6.220;2023-03-23T03:10:55;98680.09;;;11.87;85.77
74905;BME280;63465;50.862;6.220;2023-03-23T03:13:31;98677.88;;;11.93;85.03
74905;BME280;63465;50.862;6.220;2023-03-23T03:16:07;98684.44;;;11.88;85.51
74905;BME280;63465;50.862;6.220;2023-03-23T03:18:39;98683.06;;;11.95;84.88
74905;BME280;63465;50.862;6.220;2023-03-23T03:21:13;98685.84;;;11.93;85.12
74905;BME280;63465;50.862;6.220;2023-03-23T03:23:44;98674.38;;;11.93;84.89
74905;BME280;63465;50.862;6.220;2023-03-23T03:26:15;98684.03;;;11.94;85.00
74905;BME280;63465;50.862;6.220;2023-03-23T03:28:51;98685.72;;;11.95;84.58
74905;BME280;63465;50.862;6.220;2023-03-23T03:31:23;98666.28;;;11.94;84.66
74905;BME280;63465;50.862;6.220;2023-03-23T03:33:53;98675.22;;;11.93;84.50
74905;BME280;63465;50.862;6.220;2023-03-23T03:36:24;98647.34;;;11.99;84.40
74905;BME280;63465;50.862;6.220;2023-03-23T03:38:52;98654.66;;;11.95;84.67
74905;BME280;63465;50.862;6.220;2023-03-23T03:41:22;98652.88;;;11.96;84.04
74905;BME280;63465;50.862;6.220;2023-03-23T03:43:50;98653.28;;;11.90;84.56
74905;BME280;63465;50.862;6.220;2023-03-23T03:46:17;98638.19;;;11.90;84.26
74905;BME280;63465;50.862;6.220;2023-03-23T03:48:43;98650.34;;;11.94;83.88
74905;BME280;63465;50.862;6.220;2023-03-23T03:51:10;98661.16;;;11.91;84.60
74905;BME280;63465;50.862;6.220;2023-03-23T03:53:43;98667.25;;;11.93;84.40
74905;BME280;63465;50.862;6.220;2023-03-23T03:56:09;98668.94;;;11.94;83.79
74905;BME280;63465;50.862;6.220;2023-03-23T03:58:42;98656.06;;;12.01;83.42
74905;BME280;63465;50.862;6.220;2023-03-23T04:01:20;98661.38;;;12.01;83.41
74905;BME280;63465;50.862;6.220;2023-03-23T04:03:48;98656.28;;;11.98;83.44
74905;BME280;63465;50.862;6.220;2023-03-23T04:06:23;98659.03;;;11.97;83.63
74905;BME280;63465;50.862;6.220;2023-03-23T04:08:54;98673.38;;;11.94;83.58
74905;BME280;63465;50.862;6.220;2023-03-23T04:11:21;98663.41;;;11.98;83.10
74905;BME280;63465;50.862;6.220;2023-03-23T04:13:48;98667.63;;;12.00;82.94
74905;BME280;63465;50.862;6.220;2023-03-23T04:16:31;98670.41;;;11.99;82.79
74905;BME280;63465;50.862;6.220;2023-03-23T04:19:00;98667.25;;;11.93;82.93
74905;BME280;63465;50.862;6.220;2023-03-23T04:21:27;98682.03;;;11.98;82.94
74905;BME280;63465;50.862;6.220;2023-03-23T04:23:56;98701.97;;;11.90;83.22
74905;BME280;63465;50.862;6.220;2023-03-23T04:26:25;98697.50;;;11.91;83.05
74905;BME280;63465;50.862;6.220;2023-03-23T04:28:54;98708.94;;;11.93;83.18
74905;BME280;63465;50.862;6.220;2023-03-23T04:31:33;98710.59;;;11.94;82.83
74905;BME280;63465;50.862;6.220;2023-03-23T04:34:20;98714.25;;;11.93;83.15
74905;BME280;63465;50.862;6.220;2023-03-23T04:36:49;98709.66;;;11.95;82.84
74905;BME280;63465;50.862;6.220;2023-03-23T04:39:23;98715.16;;;11.92;82.81
74905;BME280;63465;50.862;6.220;2023-03-23T04:41:51;98716.69;;;11.96;82.58
74905;BME280;63465;50.862;6.220;2023-03-23T04:44:39;98701.88;;;11.92;82.75
74905;BME280;63465;50.862;6.220;2023-03-23T04:47:12;98710.78;;;11.91;82.69
74905;BME280;63465;50.862;6.220;2023-03-23T04:49:48;98708.13;;;11.91;82.89
74905;BME280;63465;50.862;6.220;2023-03-23T04:52:22;98716.22;;;11.89;82.27
74905;BME280;63465;50.862;6.220;2023-03-23T04:54:55;98707.50;;;11.87;82.53
74905;BME280;63465;50.862;6.220;2023-03-23T04:57:23;98718.34;;;11.84;82.79
74905;BME280;63465;50.862;6.220;2023-03-23T05:00:13;98718.34;;;11.84;82.28
74905;BME280;63465;50.862;6.220;2023-03-23T05:02:46;98711.13;;;11.86;82.03
74905;BME280;63465;50.862;6.220;2023-03-23T05:05:17;98707.63;;;11.86;81.85
74905;BME280;63465;50.862;6.220;2023-03-23T05:07:46;98704.84;;;11.87;81.44
74905;BME280;63465;50.862;6.220;2023-03-23T05:10:17;98712.94;;;11.86;81.33
74905;BME280;63465;50.862;6.220;2023-03-23T05:12:45;98717.50;;;11.84;81.06
74905;BME280;63465;50.862;6.220;2023-03-23T05:15:14;98714.31;;;11.78;81.56
74905;BME280;63465;50.862;6.220;2023-03-23T05:17:42;98716.97;;;11.78;81.38
74905;BME280;63465;50.862;6.220;2023-03-23T05:20:15;98719.63;;;11.78;81.13
74905;BME280;63465;50.862;6.220;2023-03-23T05:22:47;98714.00;;;11.83;80.40
74905;BME280;63465;50.862;6.220;2023-03-23T05:25:20;98735.47;;;11.80;80.48
74905;BME280;63465;50.862;6.220;2023-03-23T05:27:56;98717.91;;;11.77;80.58
74905;BME280;63465;50.862;6.220;2023-03-23T05:30:44;98714.53;;;11.75;80.62
74905;BME280;63465;50.862;6.220;2023-03-23T05:33:13;98715.25;;;11.77;80.05
74905;BME280;63465;50.862;6.220;2023-03-23T05:35:57;98715.38;;;11.76;80.51
74905;BME280;63465;50.862;6.220;2023-03-23T05:38:29;98716.66;;;11.70;80.85
74905;BME280;63465;50.862;6.220;2023-03-23T05:40:59;98716.00;;;11.67;80.70
74905;BME280;63465;50.862;6.220;2023-03-23T05:43:29;98719.19;;;11.59;81.13
74905;BME280;63465;50.862;6.220;2023-03-23T05:46:06;98729.81;;;11.59;81.44
74905;BME280;63465;50.862;6.220;2023-03-23T05:48:34;98723.88;;;11.55;81.23
74905;BME280;63465;50.862;6.220;2023-03-23T05:51:01;98727.06;;;11.60;80.84
74905;BME280;63465;50.862;6.220;2023-03-23T05:53:30;98733.03;;;11.64;81.27
74905;BME280;63465;50.862;6.220;2023-03-23T05:56:02;98731.44;;;11.62;81.21
74905;BME280;63465;50.862;6.220;2023-03-23T05:58:48;98735.59;;;11.66;80.85
74905;BME280;63465;50.862;6.220;2023-03-23T06:01:14;98738.75;;;11.71;80.84
74905;BME280;63465;50.862;6.220;2023-03-23T06:03:41;98734.19;;;11.73;80.57
74905;BME280;63465;50.862;6.220;2023-03-23T06:06:18;98743.88;;;11.74;80.87
74905;BME280;63465;50.862;6.220;2023-03-23T06:09:02;98748.88;;;11.78;80.61
74905;BME280;63465;50.862;6.220;2023-03-23T06:11:56;98757.88;;;11.76;80.74
74905;BME280;63465;50.862;6.220;2023-03-23T06:14:40;98743.34;;;11.82;80.13
74905;BME280;63465;50.862;6.220;2023-03-23T06:17:07;98741.09;;;11.75;80.80
74905;BME280;63465;50.862;6.220;2023-03-23T06:19:34;98744.72;;;11.74;80.96
74905;BME280;63465;50.862;6.220;2023-03-23T06:22:07;98749.06;;;11.75;80.94
74905;BME280;63465;50.862;6.220;2023-03-23T06:24:43;98761.22;;;11.80;80.78
74905;BME280;63465;50.862;6.220;2023-03-23T06:27:13;98748.13;;;11.76;81.10
74905;BME280;63465;50.862;6.220;2023-03-23T06:29:42;98756.63;;;11.82;80.57
74905;BME280;63465;50.862;6.220;2023-03-23T06:32:11;98751.09;;;11.85;80.30
74905;BME280;63465;50.862;6.220;2023-03-23T06:34:41;98772.81;;;11.91;79.68
74905;BME280;63465;50.862;6.220;2023-03-23T06:37:39;98774.19;;;11.97;79.38
74905;BME280;63465;50.862;6.220;2023-03-23T06:40:24;98776.22;;;11.93;79.49
74905;BME280;63465;50.862;6.220;2023-03-23T06:42:56;98777.50;;;12.01;79.09
74905;BME280;63465;50.862;6.220;2023-03-23T06:45:39;98780.91;;;12.03;78.51
74905;BME280;63465;50.862;6.220;2023-03-23T06:48:32;98773.25;;;11.98;78.68
74905;BME280;63465;50.862;6.220;2023-03-23T06:50:59;98779.84;;;12.05;78.17
74905;BME280;63465;50.862;6.220;2023-03-23T06:53:28;98777.94;;;12.07;78.19
74905;BME280;63465;50.862;6.220;2023-03-23T06:55:57;98787.63;;;12.08;78.35
74905;BME280;63465;50.862;6.220;2023-03-23T06:58:25;98786.63;;;12.09;77.87
74905;BME280;63465;50.862;6.220;2023-03-23T07:00:53;98781.97;;;12.13;77.21
74905;BME280;63465;50.862;6.220;2023-03-23T07:03:23;98783.66;;;12.14;76.99
74905;BME280;63465;50.862;6.220;2023-03-23T07:05:50;98784.75;;;12.11;77.49
74905;BME280;63465;50.862;6.220;2023-03-23T07:08:19;98773.44;;;12.21;76.21
74905;BME280;63465;50.862;6.220;2023-03-23T07:10:50;98792.59;;;12.26;76.39
74905;BME280;63465;50.862;6.220;2023-03-23T07:13:22;98780.88;;;12.28;76.17
74905;BME280;63465;50.862;6.220;2023-03-23T07:15:55;98790.75;;;12.26;76.23
74905;BME280;63465;50.862;6.220;2023-03-23T07:18:23;98761.84;;;12.22;76.51
74905;BME280;63465;50.862;6.220;2023-03-23T07:20:52;98774.06;;;12.24;76.07
74905;BME280;63465;50.862;6.220;2023-03-23T07:23:23;98779.19;;;12.27;75.96
74905;BME280;63465;50.862;6.220;2023-03-23T07:25:56;98776.41;;;12.29;76.39
74905;BME280;63465;50.862;6.220;2023-03-23T07:28:30;98775.47;;;12.30;75.38
74905;BME280;63465;50.862;6.220;2023-03-23T07:31:04;98780.66;;;12.31;75.72
74905;BME280;63465;50.862;6.220;2023-03-23T07:33:33;98761.84;;;12.35;74.97
74905;BME280;63465;50.862;6.220;2023-03-23T07:36:00;98772.03;;;12.41;75.27
74905;BME280;63465;50.862;6.220;2023-03-23T07:38:28;98778.91;;;12.43;75.03
74905;BME280;63465;50.862;6.220;2023-03-23T07:40:56;98778.69;;;12.46;75.23
74905;BME280;63465;50.862;6.220;2023-03-23T07:43:23;98771.81;;;12.44;75.00
74905;BME280;63465;50.862;6.220;2023-03-23T07:46:10;98774.66;;;12.54;74.50
74905;BME280;63465;50.862;6.220;2023-03-23T07:48:58;98770.59;;;12.48;74.68
74905;BME280;63465;50.862;6.220;2023-03-23T07:51:32;98772.97;;;12.53;74.38
74905;BME280;63465;50.862;6.220;2023-03-23T07:53:59;98778.06;;;12.56;74.50
74905;BME280;63465;50.862;6.220;2023-03-23T07:56:48;98781.06;;;12.51;74.25
74905;BME280;63465;50.862;6.220;2023-03-23T07:59:20;98789.34;;;12.59;74.18
74905;BME280;63465;50.862;6.220;2023-03-23T08:01:49;98785.50;;;12.63;74.43
74905;BME280;63465;50.862;6.220;2023-03-23T08:04:32;98772.09;;;12.65;73.27
74905;BME280;63465;50.862;6.220;2023-03-23T08:07:25;98780.06;;;12.65;73.65
74905;BME280;63465;50.862;6.220;2023-03-23T08:10:01;98790.16;;;12.60;73.39
74905;BME280;63465;50.862;6.220;2023-03-23T08:12:28;98790.88;;;12.75;73.61
74905;BME280;63465;50.862;6.220;2023-03-23T08:15:07;98786.94;;;12.80;73.71
74905;BME280;63465;50.862;6.220;2023-03-23T08:17:54;98786.94;;;12.80;73.48
74905;BME280;63465;50.862;6.220;2023-03-23T08:20:44;98806.28;;;12.82;73.58
74905;BME280;63465;50.862;6.220;2023-03-23T08:23:28;98809.00;;;12.94;73.34
74905;BME280;63465;50.862;6.220;2023-03-23T08:26:25;98774.97;;;12.86;72.49
74905;BME280;63465;50.862;6.220;2023-03-23T08:29:17;98805.41;;;12.95;72.33
74905;BME280;63465;50.862;6.220;2023-03-23T08:32:03;98795.78;;;13.05;72.96
74905;BME280;63465;50.862;6.220;2023-03-23T08:34:31;98808.75;;;13.10;71.77
74905;BME280;63465;50.862;6.220;2023-03-23T08:37:30;98828.97;;;13.12;71.54
74905;BME280;63465;50.862;6.220;2023-03-23T08:40:12;98836.34;;;13.09;72.41
74905;BME280;63465;50.862;6.220;2023-03-23T08:43:08;98828.97;;;13.12;73.32
74905;BME280;63465;50.862;6.220;2023-03-23T08:45:54;98835.25;;;12.87;74.87
74905;BME280;63465;50.862;6.220;2023-03-23T08:48:40;98834.81;;;12.93;74.12
74905;BME280;63465;50.862;6.220;2023-03-23T08:51:36;98829.88;;;13.00;74.77
74905;BME280;63465;50.862;6.220;2023-03-23T08:54:11;98817.81;;;13.07;72.63
74905;BME280;63465;50.862;6.220;2023-03-23T08:56:50;98818.88;;;13.05;73.17
74905;BME280;63465;50.862;6.220;2023-03-23T08:59:36;98815.88;;;13.09;74.25
74905;BME280;63465;50.862;6.220;2023-03-23T09:02:29;98822.19;;;13.08;73.73
74905;BME280;63465;50.862;6.220;2023-03-23T09:05:14;98827.22;;;13.00;73.49
74905;BME280;63465;50.862;6.220;2023-03-23T09:07:57;98844.38;;;12.96;73.44
74905;BME280;63465;50.862;6.220;2023-03-23T09:10:26;98817.34;;;13.13;73.35
74905;BME280;63465;50.862;6.220;2023-03-23T09:12:53;98811.53;;;13.08;72.69
74905;BME280;63465;50.862;6.220;2023-03-23T09:15:20;98839.81;;;13.22;73.47
74905;BME280;63465;50.862;6.220;2023-03-23T09:17:50;98846.09;;;13.21;72.69
74905;BME280;63465;50.862;6.220;2023-03-23T09:20:18;98842.94;;;13.16;72.88
74905;BME280;63465;50.862;6.220;2023-03-23T09:22:47;98853.13;;;13.22;73.15
74905;BME280;63465;50.862;6.220;2023-03-23T09:25:18;98846.59;;;13.74;72.28
74905;BME280;63465;50.862;6.220;2023-03-23T09:27:48;98850.44;;;14.06;71.26
74905;BME280;63465;50.862;6.220;2023-03-23T09:30:18;98863.63;;;13.61;71.68
74905;BME280;63465;50.862;6.220;2023-03-23T09:32:45;98852.16;;;13.36;73.38
74905;BME280;63465;50.862;6.220;2023-03-23T09:35:14;98841.78;;;13.31;73.50
74905;BME280;63465;50.862;6.220;2023-03-23T09:37:42;98851.50;;;13.32;73.99
74905;BME280;63465;50.862;6.220;2023-03-23T09:40:11;98839.44;;;13.75;73.45
74905;BME280;63465;50.862;6.220;2023-03-23T09:42:49;98840.94;;;13.55;73.71
74905;BME280;63465;50.862;6.220;2023-03-23T09:45:22;98825.31;;;13.26;74.73
74905;BME280;63465;50.862;6.220;2023-03-23T09:48:20;98849.50;;;12.99;76.96
74905;BME280;63465;50.862;6.220;2023-03-23T09:51:01;98837.88;;;13.24;76.67
74905;BME280;63465;50.862;6.220;2023-03-23T09:53:33;98839.25;;;13.30;76.21
74905;BME280;63465;50.862;6.220;2023-03-23T09:56:08;98859.25;;;13.60;75.04
74905;BME280;63465;50.862;6.220;2023-03-23T09:58:43;98859.22;;;13.48;75.78
74905;BME280;63465;50.862;6.220;2023-03-23T10:01:15;98873.63;;;13.46;75.70
74905;BME280;63465;50.862;6.220;2023-03-23T10:03:45;98862.38;;;13.53;75.54
74905;BME280;63465;50.862;6.220;2023-03-23T10:06:14;98863.38;;;13.52;75.23
74905;BME280;63465;50.862;6.220;2023-03-23T10:08:45;98866.44;;;13.22;77.08
74905;BME280;63465;50.862;6.220;2023-03-23T10:11:16;98857.91;;;13.30;77.40
74905;BME280;63465;50.862;6.220;2023-03-23T10:14:08;98879.66;;;13.24;78.18
74905;BME280;63465;50.862;6.220;2023-03-23T10:16:40;98864.63;;;13.35;79.57
74905;BME280;63465;50.862;6.220;2023-03-23T10:19:11;98857.63;;;13.22;80.65
74905;BME280;63465;50.862;6.220;2023-03-23T10:21:43;98851.94;;;13.74;78.74
74905;BME280;63465;50.862;6.220;2023-03-23T10:24:15;98853.25;;;14.27;75.60
74905;BME280;63465;50.862;6.220;2023-03-23T10:26:48;98847.47;;;15.33;72.32
74905;BME280;63465;50.862;6.220;2023-03-23T10:29:27;98860.22;;;14.75;72.56
74905;BME280;63465;50.862;6.220;2023-03-23T10:31:59;98849.28;;;14.55;73.36
74905;BME280;63465;50.862;6.220;2023-03-23T10:34:31;98855.22;;;14.48;73.42
74905;BME280;63465;50.862;6.220;2023-03-23T10:37:03;98862.63;;;14.55;72.71
74905;BME280;63465;50.862;6.220;2023-03-23T10:39:37;98872.63;;;14.18;73.58
74905;BME280;63465;50.862;6.220;2023-03-23T10:42:08;98877.22;;;14.62;72.50
74905;BME280;63465;50.862;6.220;2023-03-23T10:44:36;98867.75;;;14.81;71.93
74905;BME280;63465;50.862;6.220;2023-03-23T10:47:05;98875.28;;;14.65;72.73
74905;BME280;63465;50.862;6.220;2023-03-23T10:49:37;98875.63;;;14.49;72.51
74905;BME280;63465;50.862;6.220;2023-03-23T10:52:13;98877.25;;;14.04;74.28
74905;BME280;63465;50.862;6.220;2023-03-23T10:54:49;98890.00;;;14.12;73.52
74905;BME280;63465;50.862;6.220;2023-03-23T10:57:23;98882.34;;;14.30;72.92
74905;BME280;63465;50.862;6.220;2023-03-23T10:59:59;98893.91;;;14.31;73.49
74905;BME280;63465;50.862;6.220;2023-03-23T11:02:32;98888.75;;;14.05;72.90
74905;BME280;63465;50.862;6.220;2023-03-23T11:05:04;98875.94;;;13.26;78.51
74905;BME280;63465;50.862;6.220;2023-03-23T11:07:34;98878.47;;;13.28;78.72
74905;BME280;63465;50.862;6.220;2023-03-23T11:10:15;98870.16;;;13.56;78.01
74905;BME280;63465;50.862;6.220;2023-03-23T11:12:44;98873.16;;;13.76;77.33
74905;BME280;63465;50.862;6.220;2023-03-23T11:15:26;98867.41;;;13.94;76.98
74905;BME280;63465;50.862;6.220;2023-03-23T11:18:00;98878.66;;;13.97;76.22
74905;BME280;63465;50.862;6.220;2023-03-23T11:20:29;98886.81;;;14.07;76.70
74905;BME280;63465;50.862;6.220;2023-03-23T11:22:57;98883.78;;;14.00;76.91
74905;BME280;63465;50.862;6.220;2023-03-23T11:25:24;98874.22;;;14.20;76.63
74905;BME280;63465;50.862;6.220;2023-03-23T11:27:52;98889.16;;;14.23;76.35
74905;BME280;63465;50.862;6.220;2023-03-23T11:30:24;98891.53;;;14.95;74.07
74905;BME280;63465;50.862;6.220;2023-03-23T11:32:53;98879.34;;;14.23;75.85
74905;BME280;63465;50.862;6.220;2023-03-23T11:35:23;98881.03;;;14.36;75.24
74905;BME280;63465;50.862;6.220;2023-03-23T11:37:52;98871.72;;;14.87;73.46
74905;BME280;63465;50.862;6.220;2023-03-23T11:40:22;98866.53;;;14.74;72.66
74905;BME280;63465;50.862;6.220;2023-03-23T11:42:57;98854.78;;;15.20;71.34
74905;BME280;63465;50.862;6.220;2023-03-23T11:45:32;98860.91;;;15.76;69.52
74905;BME280;63465;50.862;6.220;2023-03-23T11:48:06;98870.69;;;16.71;65.36
74905;BME280;63465;50.862;6.220;2023-03-23T11:50:45;98864.34;;;15.78;68.22
74905;BME280;63465;50.862;6.220;2023-03-23T11:53:18;98862.97;;;15.51;67.51
74905;BME280;63465;50.862;6.220;2023-03-23T11:55:56;98866.31;;;15.64;68.20
74905;BME280;63465;50.862;6.220;2023-03-23T11:58:25;98871.47;;;15.56;69.38
74905;BME280;63465;50.862;6.220;2023-03-23T12:01:04;98884.19;;;15.64;69.16
74905;BME280;63465;50.862;6.220;2023-03-23T12:03:47;98868.91;;;15.22;68.10
74905;BME280;63465;50.862;6.220;2023-03-23T12:06:27;98881.81;;;14.94;70.05
74905;BME280;63465;50.862;6.220;2023-03-23T12:09:06;98876.38;;;15.72;67.87
74905;BME280;63465;50.862;6.220;2023-03-23T12:11:43;98874.28;;;15.76;67.19
74905;BME280;63465;50.862;6.220;2023-03-23T12:14:16;98865.63;;;15.51;68.04
74905;BME280;63465;50.862;6.220;2023-03-23T12:16:57;98878.56;;;15.78;66.72
74905;BME280;63465;50.862;6.220;2023-03-23T12:19:33;98899.31;;;15.86;65.96
74905;BME280;63465;50.862;6.220;2023-03-23T12:22:12;98859.53;;;16.14;66.09
74905;BME280;63465;50.862;6.220;2023-03-23T12:24:52;98865.66;;;16.04;65.43
74905;BME280;63465;50.862;6.220;2023-03-23T12:27:27;98853.63;;;16.20;65.15
74905;BME280;63465;50.862;6.220;2023-03-23T12:30:19;98857.53;;;15.74;67.35
74905;BME280;63465;50.862;6.220;2023-03-23T12:33:03;98864.66;;;15.08;67.91
74905;BME280;63465;50.862;6.220;2023-03-23T12:35:44;98875.03;;;14.79;69.10
74905;BME280;63465;50.862;6.220;2023-03-23T12:38:36;98877.91;;;14.42;71.11
74905;BME280;63465;50.862;6.220;2023-03-23T12:41:14;98876.78;;;14.11;73.04
74905;BME280;63465;50.862;6.220;2023-03-23T12:43:51;98871.91;;;14.16;72.95
74905;BME280;63465;50.862;6.220;2023-03-23T12:46:29;98890.28;;;14.43;72.43
74905;BME280;63465;50.862;6.220;2023-03-23T12:49:04;98892.72;;;14.46;72.78
74905;BME280;63465;50.862;6.220;2023-03-23T12:51:37;98906.97;;;14.22;73.10
74905;BME280;63465;50.862;6.220;2023-03-23T12:54:09;98908.69;;;14.35;73.58
74905;BME280;63465;50.862;6.220;2023-03-23T12:56:42;98930.19;;;13.98;73.72
74905;BME280;63465;50.862;6.220;2023-03-23T12:59:17;98920.44;;;13.85;75.08
74905;BME280;63465;50.862;6.220;2023-03-23T13:01:48;98918.00;;;13.82;76.40
74905;BME280;63465;50.862;6.220;2023-03-23T13:04:21;98927.91;;;13.32;78.57
74905;BME280;63465;50.862;6.220;2023-03-23T13:06:49;98928.31;;;12.89;83.64
74905;BME280;63465;50.862;6.220;2023-03-23T13:09:19;98915.34;;;12.32;87.26
74905;BME280;63465;50.862;6.220;2023-03-23T13:11:48;98916.19;;;12.20;88.38
74905;BME280;63465;50.862;6.220;2023-03-23T13:14:31;98903.75;;;12.46;87.88
74905;BME280;63465;50.862;6.220;2023-03-23T13:17:07;98906.72;;;12.80;87.38
74905;BME280;63465;50.862;6.220;2023-03-23T13:20:00;98902.75;;;12.99;84.75
74905;BME280;63465;50.862;6.220;2023-03-23T13:22:39;98899.31;;;12.97;85.58
74905;BME280;63465;50.862;6.220;2023-03-23T13:25:13;98895.75;;;13.59;83.48
74905;BME280;63465;50.862;6.220;2023-03-23T13:27:41;98895.16;;;13.67;82.80
74905;BME280;63465;50.862;6.220;2023-03-23T13:30:19;98886.66;;;13.97;79.87
74905;BME280;63465;50.862;6.220;2023-03-23T13:32:50;98881.53;;;14.18;79.68
74905;BME280;63465;50.862;6.220;2023-03-23T13:35:19;98884.19;;;14.18;79.17
74905;BME280;63465;50.862;6.220;2023-03-23T13:37:49;98880.75;;;14.05;77.09
74905;BME280;63465;50.862;6.220;2023-03-23T13:40:25;98877.34;;;14.61;76.11